createdAt,value
2022-08-26T00:01:55.508Z,101576.28
2022-08-26T00:07:20.419Z,101607.47
2022-08-26T00:12:43.826Z,101599.56
2022-08-26T00:18:16.836Z,101605.41
2022-08-26T00:23:47.454Z,101600.88
2022-08-26T00:29:10.915Z,101615.03
2022-08-26T00:34:34.207Z,101595.75
2022-08-26T00:40:00.627Z,101607.25
2022-08-26T00:45:25.301Z,101614.19
2022-08-26T00:50:51.891Z,101615.13
2022-08-26T00:56:20.626Z,101603.00
2022-08-26T01:01:45.956Z,101610.47
2022-08-26T01:07:09.566Z,101610.41
2022-08-26T01:12:38.848Z,101619.41
2022-08-26T01:18:05.401Z,101620.06
2022-08-26T01:23:32.401Z,101614.69
2022-08-26T01:28:57.708Z,101603.09
2022-08-26T01:34:25.256Z,101603.47
2022-08-26T01:39:52.024Z,101610.31
2022-08-26T01:45:18.447Z,101607.38
2022-08-26T01:50:44.215Z,101614.94
2022-08-26T01:56:09.579Z,101604.13
2022-08-26T02:01:33.060Z,101624.53
2022-08-26T02:06:56.858Z,101621.97
2022-08-26T02:12:21.641Z,101617.69
2022-08-26T02:17:46.860Z,101626.84
2022-08-26T02:23:11.017Z,101617.94
2022-08-26T02:28:40.524Z,101623.91
2022-08-26T02:34:11.173Z,101620.22
2022-08-26T02:39:35.661Z,101626.50
2022-08-26T02:45:01.500Z,101627.59
2022-08-26T02:50:25.155Z,101612.47
2022-08-26T02:55:49.541Z,101634.78
2022-08-26T03:01:23.196Z,101618.88
2022-08-26T03:06:47.110Z,101605.91
2022-08-26T03:12:16.126Z,101614.25
2022-08-26T03:17:40.736Z,101619.88
2022-08-26T03:23:04.060Z,101614.16
2022-08-26T03:28:27.745Z,101621.94
2022-08-26T03:33:53.976Z,101612.63
2022-08-26T03:39:20.341Z,101605.53
2022-08-26T03:44:43.602Z,101614.84
2022-08-26T03:50:11.205Z,101617.50
2022-08-26T03:55:34.561Z,101611.59
2022-08-26T04:00:57.715Z,101610.28
2022-08-26T04:06:22.371Z,101612.22
2022-08-26T04:11:50.759Z,101606.22
2022-08-26T04:17:15.653Z,101607.75
2022-08-26T04:22:42.153Z,101605.72
2022-08-26T04:28:05.406Z,101605.66
2022-08-26T04:33:32.402Z,101606.09
2022-08-26T04:38:58.178Z,101599.56
2022-08-26T04:44:21.747Z,101595.13
2022-08-26T04:49:44.921Z,101612.34
2022-08-26T04:55:10.564Z,101615.09
2022-08-26T05:00:33.784Z,101616.41
2022-08-26T05:05:59.268Z,101618.03
2022-08-26T05:11:24.691Z,101629.94
2022-08-26T05:16:48.089Z,101618.34
2022-08-26T05:22:13.187Z,101619.63
2022-08-26T05:27:37.968Z,101625.88
2022-08-26T05:33:01.516Z,101627.81
2022-08-26T05:38:25.976Z,101636.25
2022-08-26T05:43:55.775Z,101633.63
2022-08-26T05:49:18.930Z,101652.56
2022-08-26T05:54:42.596Z,101652.34
2022-08-26T06:00:09.728Z,101660.44
2022-08-26T06:05:39.305Z,101641.78
2022-08-26T06:11:05.364Z,101664.19
2022-08-26T06:16:30.489Z,101652.31
2022-08-26T06:21:54.877Z,101670.31
2022-08-26T06:27:18.303Z,101673.78
2022-08-26T06:32:44.343Z,101664.19
2022-08-26T06:38:08.107Z,101686.75
2022-08-26T06:43:31.305Z,101689.88
2022-08-26T06:48:59.161Z,101699.25
2022-08-26T06:54:22.433Z,101691.66
2022-08-26T06:59:45.713Z,101674.63
2022-08-26T07:05:11.540Z,101688.44
2022-08-26T07:10:34.701Z,101677.72
2022-08-26T07:16:03.071Z,101692.13
2022-08-26T07:21:28.813Z,101697.19
2022-08-26T07:26:51.911Z,101694.00
2022-08-26T07:32:17.070Z,101709.97
2022-08-26T07:37:42.550Z,101718.44
2022-08-26T07:43:05.744Z,101723.72
2022-08-26T07:48:29.058Z,101732.41
2022-08-26T07:53:56.053Z,101730.28
2022-08-26T07:59:19.985Z,101730.97
2022-08-26T08:04:44.563Z,101742.16
2022-08-26T08:10:13.669Z,101730.19
2022-08-26T08:15:37.630Z,101723.66
2022-08-26T08:21:21.359Z,101723.19
2022-08-26T08:26:47.279Z,101730.53
2022-08-26T08:32:11.620Z,101735.63
2022-08-26T08:37:38.710Z,101733.47
2022-08-26T08:43:06.220Z,101733.81
2022-08-26T08:48:32.872Z,101741.91
2022-08-26T08:53:56.833Z,101740.41
2022-08-26T08:59:24.117Z,101734.22
2022-08-26T09:04:59.343Z,101735.25
2022-08-26T09:10:30.484Z,101732.75
2022-08-26T09:16:03.570Z,101748.25
2022-08-26T09:21:27.271Z,101746.66
2022-08-26T09:26:52.609Z,101759.00
2022-08-26T09:32:22.124Z,101765.44
2022-08-26T09:43:22.031Z,101752.94
2022-08-26T09:48:47.535Z,101756.91
2022-08-26T09:54:30.361Z,101735.44
2022-08-26T09:59:56.180Z,101746.56
2022-08-26T10:05:33.979Z,101766.13
2022-08-26T10:10:58.313Z,101762.75
2022-08-26T10:16:28.403Z,101730.47
2022-08-26T10:22:00.790Z,101718.78
2022-08-26T10:27:27.053Z,101746.72
2022-08-26T10:32:52.354Z,101746.97
2022-08-26T10:38:20.001Z,101741.16
2022-08-26T10:43:46.750Z,101743.13
2022-08-26T10:49:13.091Z,101749.41
2022-08-26T10:54:40.522Z,101743.00
2022-08-26T11:00:29.165Z,101747.97
2022-08-26T11:06:22.422Z,101747.44
2022-08-26T11:11:49.510Z,101751.44
2022-08-26T11:17:14.255Z,101746.75
2022-08-26T11:22:47.846Z,101746.38
2022-08-26T11:28:33.418Z,101735.16
2022-08-26T11:34:00.331Z,101729.50
2022-08-26T11:39:28.747Z,101733.53
2022-08-26T11:44:53.371Z,101751.91
2022-08-26T11:50:23.500Z,101750.84
2022-08-26T11:55:47.334Z,101749.56
2022-08-26T12:01:14.755Z,101750.25
2022-08-26T12:06:47.178Z,101749.03
2022-08-26T12:12:13.205Z,101743.31
2022-08-26T12:17:39.579Z,101748.75
2022-08-26T12:23:04.970Z,101749.72
2022-08-26T12:28:30.479Z,101750.91
2022-08-26T12:33:55.586Z,101749.91
2022-08-26T12:39:26.203Z,101760.88
2022-08-26T12:44:53.934Z,101754.25
2022-08-26T12:50:21.762Z,101771.09
2022-08-26T12:55:47.563Z,101777.63
2022-08-26T13:01:22.373Z,101761.06
2022-08-26T13:06:47.102Z,101763.94
2022-08-26T13:12:11.361Z,101769.59
2022-08-26T13:17:35.908Z,101763.78
2022-08-26T13:23:00.646Z,101759.84
2022-08-26T13:28:23.776Z,101768.78
2022-08-26T13:33:48.424Z,101765.59
2022-08-26T13:39:14.041Z,101765.53
2022-08-26T13:44:38.960Z,101770.34
2022-08-26T13:50:02.125Z,101772.84
2022-08-26T13:55:27.734Z,101760.38
2022-08-26T14:00:50.946Z,101763.41
2022-08-26T14:06:14.543Z,101759.59
2022-08-26T14:11:50.697Z,101754.88
2022-08-26T14:17:20.477Z,101750.41
2022-08-26T14:23:03.510Z,101755.56
2022-08-26T14:28:30.184Z,101747.47
2022-08-26T14:33:53.488Z,101728.84
2022-08-26T14:39:16.617Z,101730.72
2022-08-26T14:44:43.509Z,101733.69
2022-08-26T14:50:07.679Z,101743.19
2022-08-26T14:55:32.334Z,101744.41
2022-08-26T15:00:56.892Z,101746.19
2022-08-26T15:06:20.511Z,101736.81
2022-08-26T15:11:44.029Z,101750.34
2022-08-26T15:17:12.143Z,101744.91
2022-08-26T15:22:35.334Z,101736.34
2022-08-26T15:27:58.453Z,101747.22
2022-08-26T15:33:23.038Z,101735.84
2022-08-26T15:38:46.306Z,101735.53
2022-08-26T15:44:10.875Z,101740.53
2022-08-26T15:49:35.754Z,101738.47
2022-08-26T15:54:58.916Z,101745.19
2022-08-26T16:00:22.999Z,101737.72
2022-08-26T16:05:48.646Z,101739.78
2022-08-26T16:11:11.896Z,101720.19
2022-08-26T16:16:35.263Z,101721.22
2022-08-26T16:21:59.765Z,101726.13
2022-08-26T16:27:23.065Z,101734.44
2022-08-26T16:32:46.452Z,101720.06
2022-08-26T16:38:11.270Z,101727.78
2022-08-26T16:43:34.632Z,101720.63
2022-08-26T16:48:58.767Z,101720.22
2022-08-26T16:54:23.275Z,101725.53
2022-08-26T16:59:46.507Z,101725.16
2022-08-26T17:05:10.863Z,101721.59
2022-08-26T17:10:35.559Z,101729.81
2022-08-26T17:16:00.002Z,101738.72
2022-08-26T17:21:23.315Z,101748.09
2022-08-26T17:26:50.009Z,101742.16
2022-08-26T17:32:17.093Z,101754.47
2022-08-26T17:37:40.299Z,101753.28
2022-08-26T17:43:10.320Z,101752.63
2022-08-26T17:48:35.748Z,101763.94
2022-08-26T17:53:58.951Z,101777.47
2022-08-26T17:59:23.514Z,101771.25
2022-08-26T18:04:53.660Z,101767.69
2022-08-26T18:10:19.743Z,101768.66
2022-08-26T18:15:45.678Z,101779.19
2022-08-26T18:21:13.112Z,101782.84
2022-08-26T18:26:37.686Z,101789.88
2022-08-26T18:32:02.522Z,101787.06
2022-08-26T18:37:27.981Z,101772.75
2022-08-26T18:42:54.376Z,101793.69
2022-08-26T18:48:18.913Z,101795.22
2022-08-26T18:53:42.454Z,101798.19
2022-08-26T18:59:06.989Z,101798.56
2022-08-26T19:04:31.635Z,101780.72
2022-08-26T19:09:54.859Z,101814.00
2022-08-26T19:15:18.209Z,101817.41
2022-08-26T19:20:46.644Z,101812.19
2022-08-26T19:26:10.631Z,101821.41
2022-08-26T19:31:33.854Z,101815.31
2022-08-26T19:36:58.719Z,101818.91
2022-08-26T19:42:24.833Z,101813.59
2022-08-26T19:47:48.129Z,101830.16
2022-08-26T19:53:13.015Z,101833.34
2022-08-26T19:58:36.330Z,101833.41
2022-08-26T20:03:59.500Z,101835.78
2022-08-26T20:09:24.137Z,101835.78
2022-08-26T20:14:47.839Z,101830.91
2022-08-26T20:20:32.758Z,101831.19
2022-08-26T20:25:58.444Z,101826.38
2022-08-26T20:31:21.858Z,101826.50
2022-08-26T20:36:46.448Z,101836.84
2022-08-26T20:42:20.328Z,101830.81
2022-08-26T20:47:43.858Z,101837.97
2022-08-26T20:53:07.356Z,101825.88
2022-08-26T20:58:31.942Z,101828.91
2022-08-26T21:03:56.818Z,101827.19
2022-08-26T21:09:20.122Z,101804.34
2022-08-26T21:14:49.524Z,101819.59
2022-08-26T21:20:13.060Z,101826.81
2022-08-26T21:25:36.286Z,101807.06
2022-08-26T21:31:04.117Z,101825.31
2022-08-26T21:36:27.547Z,101819.22
2022-08-26T21:41:50.770Z,101817.94
2022-08-26T21:47:15.494Z,101823.78
2022-08-26T21:52:39.367Z,101825.66
2022-08-26T21:58:02.604Z,101816.69
2022-08-26T22:03:27.392Z,101824.63
2022-08-26T22:08:50.755Z,101820.44
2022-08-26T22:14:14.757Z,101827.03
2022-08-26T22:19:45.928Z,101828.25
2022-08-26T22:25:10.486Z,101841.63
2022-08-26T22:30:35.138Z,101832.81
2022-08-26T22:35:59.724Z,101834.91
2022-08-26T22:41:23.392Z,101833.94
2022-08-26T22:46:47.390Z,101810.38
2022-08-26T22:52:11.943Z,101825.72
2022-08-26T22:57:35.097Z,101829.16
2022-08-26T23:02:58.502Z,101819.63
2022-08-26T23:08:23.526Z,101819.75
2022-08-26T23:13:46.721Z,101818.75
2022-08-26T23:19:10.572Z,101818.44
2022-08-26T23:24:35.874Z,101813.72
2022-08-26T23:29:59.162Z,101798.34
2022-08-26T23:35:22.739Z,101809.56
2022-08-26T23:40:48.454Z,101820.25
2022-08-26T23:46:12.773Z,101799.91
2022-08-26T23:51:53.504Z,101799.25
2022-08-26T23:57:19.607Z,101787.66
